sensor_id;sensor_type;location;lat;lon;timestamp;P1;durP1;ratioP1;P2;durP2;ratioP2
10717;SDS011;13513;42.700;23.124;2023-11-19T00:01:28;2.20;;;2.00;;
10717;SDS011;13513;42.700;23.124;2023-11-19T00:03:55;2.20;;;2.00;;
10717;SDS011;13513;42.700;23.124;2023-11-19T00:06:23;2.30;;;2.10;;
10717;SDS011;13513;42.700;23.124;2023-11-19T00:08:51;2.00;;;1.80;;
10717;SDS011;13513;42.700;23.124;2023-11-19T00:11:18;2.40;;;2.20;;
10717;SDS011;13513;42.700;23.124;2023-11-19T00:13:46;2.20;;;2.00;;
10717;SDS011;13513;42.700;23.124;2023-11-19T00:16:13;2.07;;;1.97;;
10717;SDS011;13513;42.700;23.124;2023-11-19T00:18:42;2.53;;;2.33;;
10717;SDS011;13513;42.700;23.124;2023-11-19T00:21:09;2.33;;;1.97;;
10717;SDS011;13513;42.700;23.124;2023-11-19T00:23:37;2.70;;;2.30;;
10717;SDS011;13513;42.700;23.124;2023-11-19T00:26:04;2.60;;;2.40;;
10717;SDS011;13513;42.700;23.124;2023-11-19T00:28:32;2.60;;;2.40;;
10717;SDS011;13513;42.700;23.124;2023-11-19T00:31:00;2.60;;;2.40;;
10717;SDS011;13513;42.700;23.124;2023-11-19T00:33:28;2.27;;;2.07;;
10717;SDS011;13513;42.700;23.124;2023-11-19T00:35:56;3.20;;;2.23;;
10717;SDS011;13513;42.700;23.124;2023-11-19T00:38:24;2.20;;;2.00;;
10717;SDS011;13513;42.700;23.124;2023-11-19T00:40:51;2.07;;;1.97;;
10717;SDS011;13513;42.700;23.124;2023-11-19T00:43:19;2.53;;;2.33;;
10717;SDS011;13513;42.700;23.124;2023-11-19T00:45:47;2.33;;;2.10;;
10717;SDS011;13513;42.700;23.124;2023-11-19T00:48:16;2.40;;;2.20;;
10717;SDS011;13513;42.700;23.124;2023-11-19T00:50:44;2.67;;;2.23;;
10717;SDS011;13513;42.700;23.124;2023-11-19T00:53:12;2.57;;;2.20;;
10717;SDS011;13513;42.700;23.124;2023-11-19T00:55:39;2.33;;;2.13;;
10717;SDS011;13513;42.700;23.124;2023-11-19T00:58:07;2.10;;;1.93;;
10717;SDS011;13513;42.700;23.124;2023-11-19T01:00:34;3.50;;;2.30;;
10717;SDS011;13513;42.700;23.124;2023-11-19T01:03:01;1.93;;;1.83;;
10717;SDS011;13513;42.700;23.124;2023-11-19T01:05:29;2.30;;;2.10;;
10717;SDS011;13513;42.700;23.124;2023-11-19T01:07:56;2.10;;;2.00;;
10717;SDS011;13513;42.700;23.124;2023-11-19T01:10:24;2.30;;;2.10;;
10717;SDS011;13513;42.700;23.124;2023-11-19T01:12:51;3.30;;;2.27;;
10717;SDS011;13513;42.700;23.124;2023-11-19T01:15:19;2.30;;;2.10;;
10717;SDS011;13513;42.700;23.124;2023-11-19T01:17:46;2.23;;;2.10;;
10717;SDS011;13513;42.700;23.124;2023-11-19T01:20:14;2.80;;;2.10;;
10717;SDS011;13513;42.700;23.124;2023-11-19T01:22:42;2.40;;;2.17;;
10717;SDS011;13513;42.700;23.124;2023-11-19T01:25:10;2.37;;;2.00;;
10717;SDS011;13513;42.700;23.124;2023-11-19T01:27:38;4.83;;;1.90;;
10717;SDS011;13513;42.700;23.124;2023-11-19T01:30:06;2.40;;;2.20;;
10717;SDS011;13513;42.700;23.124;2023-11-19T01:32:35;2.53;;;2.20;;
10717;SDS011;13513;42.700;23.124;2023-11-19T01:35:03;2.13;;;1.93;;
10717;SDS011;13513;42.700;23.124;2023-11-19T01:37:31;4.13;;;1.90;;
10717;SDS011;13513;42.700;23.124;2023-11-19T01:40:00;2.10;;;1.90;;
10717;SDS011;13513;42.700;23.124;2023-11-19T01:42:29;2.00;;;1.80;;
10717;SDS011;13513;42.700;23.124;2023-11-19T01:44:58;1.80;;;1.70;;
10717;SDS011;13513;42.700;23.124;2023-11-19T01:47:27;1.90;;;1.80;;
10717;SDS011;13513;42.700;23.124;2023-11-19T01:49:57;1.93;;;1.80;;
10717;SDS011;13513;42.700;23.124;2023-11-19T01:52:25;2.00;;;1.83;;
10717;SDS011;13513;42.700;23.124;2023-11-19T01:54:54;1.70;;;1.60;;
10717;SDS011;13513;42.700;23.124;2023-11-19T01:57:22;2.13;;;1.80;;
10717;SDS011;13513;42.700;23.124;2023-11-19T01:59:51;4.17;;;1.90;;
10717;SDS011;13513;42.700;23.124;2023-11-19T02:02:20;2.33;;;2.13;;
10717;SDS011;13513;42.700;23.124;2023-11-19T02:04:49;2.00;;;1.80;;
10717;SDS011;13513;42.700;23.124;2023-11-19T02:07:17;1.97;;;1.80;;
10717;SDS011;13513;42.700;23.124;2023-11-19T02:09:46;2.20;;;1.93;;
10717;SDS011;13513;42.700;23.124;2023-11-19T02:12:13;2.00;;;1.80;;
10717;SDS011;13513;42.700;23.124;2023-11-19T02:14:41;1.90;;;1.77;;
10717;SDS011;13513;42.700;23.124;2023-11-19T02:17:24;4.80;;;1.80;;
10717;SDS011;13513;42.700;23.124;2023-11-19T02:19:58;2.70;;;2.07;;
10717;SDS011;13513;42.700;23.124;2023-11-19T02:22:25;1.90;;;1.80;;
10717;SDS011;13513;42.700;23.124;2023-11-19T02:24:55;2.13;;;1.93;;
10717;SDS011;13513;42.700;23.124;2023-11-19T02:27:30;2.30;;;2.10;;
10717;SDS011;13513;42.700;23.124;2023-11-19T02:30:06;2.27;;;1.87;;
10717;SDS011;13513;42.700;23.124;2023-11-19T02:32:35;2.57;;;2.37;;
10717;SDS011;13513;42.700;23.124;2023-11-19T02:35:04;1.97;;;1.80;;
10717;SDS011;13513;42.700;23.124;2023-11-19T02:37:38;1.97;;;1.80;;
10717;SDS011;13513;42.700;23.124;2023-11-19T02:40:02;4.87;;;1.80;;
10717;SDS011;13513;42.700;23.124;2023-11-19T02:42:31;2.17;;;1.80;;
10717;SDS011;13513;42.700;23.124;2023-11-19T02:44:58;1.90;;;1.80;;
10717;SDS011;13513;42.700;23.124;2023-11-19T02:47:26;1.80;;;1.70;;
10717;SDS011;13513;42.700;23.124;2023-11-19T02:49:55;2.13;;;1.90;;
10717;SDS011;13513;42.700;23.124;2023-11-19T02:52:23;2.30;;;2.10;;
10717;SDS011;13513;42.700;23.124;2023-11-19T02:54:50;1.90;;;1.80;;
10717;SDS011;13513;42.700;23.124;2023-11-19T02:57:18;2.20;;;2.00;;
10717;SDS011;13513;42.700;23.124;2023-11-19T02:59:46;2.63;;;2.00;;
10717;SDS011;13513;42.700;23.124;2023-11-19T03:02:14;2.10;;;1.90;;
10717;SDS011;13513;42.700;23.124;2023-11-19T03:04:43;2.67;;;2.43;;
10717;SDS011;13513;42.700;23.124;2023-11-19T03:07:11;2.17;;;1.97;;
10717;SDS011;13513;42.700;23.124;2023-11-19T03:09:39;1.90;;;1.80;;
10717;SDS011;13513;42.700;23.124;2023-11-19T03:12:06;2.17;;;1.97;;
10717;SDS011;13513;42.700;23.124;2023-11-19T03:14:34;2.27;;;1.97;;
10717;SDS011;13513;42.700;23.124;2023-11-19T03:17:01;3.27;;;2.37;;
10717;SDS011;13513;42.700;23.124;2023-11-19T03:19:30;1.90;;;1.80;;
10717;SDS011;13513;42.700;23.124;2023-11-19T03:21:58;2.43;;;2.23;;
10717;SDS011;13513;42.700;23.124;2023-11-19T03:24:25;1.77;;;1.67;;
10717;SDS011;13513;42.700;23.124;2023-11-19T03:26:52;2.37;;;1.80;;
10717;SDS011;13513;42.700;23.124;2023-11-19T03:29:20;2.50;;;1.90;;
10717;SDS011;13513;42.700;23.124;2023-11-19T03:31:48;2.10;;;1.87;;
10717;SDS011;13513;42.700;23.124;2023-11-19T03:34:16;2.60;;;2.20;;
10717;SDS011;13513;42.700;23.124;2023-11-19T03:36:44;4.67;;;1.70;;
10717;SDS011;13513;42.700;23.124;2023-11-19T03:39:12;2.43;;;1.90;;
10717;SDS011;13513;42.700;23.124;2023-11-19T03:41:39;2.23;;;1.90;;
10717;SDS011;13513;42.700;23.124;2023-11-19T03:44:07;1.87;;;1.77;;
10717;SDS011;13513;42.700;23.124;2023-11-19T03:46:34;2.50;;;1.80;;
10717;SDS011;13513;42.700;23.124;2023-11-19T03:49:02;2.20;;;2.00;;
10717;SDS011;13513;42.700;23.124;2023-11-19T03:51:30;1.90;;;1.80;;
10717;SDS011;13513;42.700;23.124;2023-11-19T03:53:57;3.53;;;2.00;;
10717;SDS011;13513;42.700;23.124;2023-11-19T03:56:25;2.10;;;1.90;;
10717;SDS011;13513;42.700;23.124;2023-11-19T03:58:54;2.10;;;1.90;;
10717;SDS011;13513;42.700;23.124;2023-11-19T04:01:21;3.97;;;2.10;;
10717;SDS011;13513;42.700;23.124;2023-11-19T04:03:49;2.13;;;1.93;;
10717;SDS011;13513;42.700;23.124;2023-11-19T04:06:16;2.03;;;1.83;;
10717;SDS011;13513;42.700;23.124;2023-11-19T04:08:44;2.00;;;1.80;;
10717;SDS011;13513;42.700;23.124;2023-11-19T04:11:12;1.80;;;1.70;;
10717;SDS011;13513;42.700;23.124;2023-11-19T04:13:39;2.10;;;1.90;;
10717;SDS011;13513;42.700;23.124;2023-11-19T04:16:07;2.07;;;1.93;;
10717;SDS011;13513;42.700;23.124;2023-11-19T04:18:34;2.30;;;2.10;;
10717;SDS011;13513;42.700;23.124;2023-11-19T04:21:05;2.20;;;2.00;;
10717;SDS011;13513;42.700;23.124;2023-11-19T04:23:34;2.43;;;1.70;;
10717;SDS011;13513;42.700;23.124;2023-11-19T04:26:02;1.80;;;1.70;;
10717;SDS011;13513;42.700;23.124;2023-11-19T04:28:30;2.07;;;1.87;;
10717;SDS011;13513;42.700;23.124;2023-11-19T04:30:57;2.20;;;2.00;;
10717;SDS011;13513;42.700;23.124;2023-11-19T04:33:25;2.70;;;2.13;;
10717;SDS011;13513;42.700;23.124;2023-11-19T04:35:52;2.90;;;1.80;;
10717;SDS011;13513;42.700;23.124;2023-11-19T04:38:20;2.10;;;1.90;;
10717;SDS011;13513;42.700;23.124;2023-11-19T04:40:47;2.27;;;1.90;;
10717;SDS011;13513;42.700;23.124;2023-11-19T04:43:15;1.90;;;1.80;;
10717;SDS011;13513;42.700;23.124;2023-11-19T04:45:42;2.63;;;2.10;;
10717;SDS011;13513;42.700;23.124;2023-11-19T04:48:10;2.20;;;2.00;;
10717;SDS011;13513;42.700;23.124;2023-11-19T04:50:38;3.97;;;2.00;;
10717;SDS011;13513;42.700;23.124;2023-11-19T04:53:05;2.27;;;1.97;;
10717;SDS011;13513;42.700;23.124;2023-11-19T04:55:33;2.57;;;2.30;;
10717;SDS011;13513;42.700;23.124;2023-11-19T04:58:00;2.17;;;1.87;;
10717;SDS011;13513;42.700;23.124;2023-11-19T05:00:28;1.77;;;1.67;;
10717;SDS011;13513;42.700;23.124;2023-11-19T05:02:56;2.20;;;1.90;;
10717;SDS011;13513;42.700;23.124;2023-11-19T05:05:24;2.50;;;2.27;;
10717;SDS011;13513;42.700;23.124;2023-11-19T05:07:53;2.20;;;1.80;;
10717;SDS011;13513;42.700;23.124;2023-11-19T05:10:20;2.20;;;2.00;;
10717;SDS011;13513;42.700;23.124;2023-11-19T05:12:48;2.30;;;2.10;;
10717;SDS011;13513;42.700;23.124;2023-11-19T05:15:15;2.40;;;2.20;;
10717;SDS011;13513;42.700;23.124;2023-11-19T05:17:43;2.13;;;1.93;;
10717;SDS011;13513;42.700;23.124;2023-11-19T05:20:10;2.73;;;2.07;;
10717;SDS011;13513;42.700;23.124;2023-11-19T05:22:42;1.80;;;1.70;;
10717;SDS011;13513;42.700;23.124;2023-11-19T05:25:11;1.87;;;1.73;;
10717;SDS011;13513;42.700;23.124;2023-11-19T05:27:38;2.43;;;1.90;;
10717;SDS011;13513;42.700;23.124;2023-11-19T05:30:06;1.80;;;1.70;;
10717;SDS011;13513;42.700;23.124;2023-11-19T05:32:35;2.27;;;2.07;;
10717;SDS011;13513;42.700;23.124;2023-11-19T05:35:03;3.73;;;1.90;;
10717;SDS011;13513;42.700;23.124;2023-11-19T05:37:31;2.30;;;2.10;;
10717;SDS011;13513;42.700;23.124;2023-11-19T05:40:00;2.60;;;2.20;;
10717;SDS011;13513;42.700;23.124;2023-11-19T05:42:29;2.57;;;2.03;;
10717;SDS011;13513;42.700;23.124;2023-11-19T05:44:57;2.30;;;2.10;;
10717;SDS011;13513;42.700;23.124;2023-11-19T05:47:24;2.33;;;2.07;;
10717;SDS011;13513;42.700;23.124;2023-11-19T05:49:51;2.40;;;2.20;;
10717;SDS011;13513;42.700;23.124;2023-11-19T05:52:19;2.60;;;2.00;;
10717;SDS011;13513;42.700;23.124;2023-11-19T05:54:48;2.30;;;2.10;;
10717;SDS011;13513;42.700;23.124;2023-11-19T05:57:17;2.20;;;2.00;;
10717;SDS011;13513;42.700;23.124;2023-11-19T05:59:49;2.50;;;2.30;;
10717;SDS011;13513;42.700;23.124;2023-11-19T06:02:16;2.27;;;2.07;;
10717;SDS011;13513;42.700;23.124;2023-11-19T06:04:44;2.07;;;1.83;;
10717;SDS011;13513;42.700;23.124;2023-11-19T06:07:13;2.30;;;2.10;;
10717;SDS011;13513;42.700;23.124;2023-11-19T06:09:41;2.27;;;2.07;;
10717;SDS011;13513;42.700;23.124;2023-11-19T06:12:08;2.87;;;2.30;;
10717;SDS011;13513;42.700;23.124;2023-11-19T06:14:36;2.20;;;2.00;;
10717;SDS011;13513;42.700;23.124;2023-11-19T06:17:03;2.07;;;1.93;;
10717;SDS011;13513;42.700;23.124;2023-11-19T06:19:32;2.40;;;2.10;;
10717;SDS011;13513;42.700;23.124;2023-11-19T06:21:59;2.70;;;2.30;;
10717;SDS011;13513;42.700;23.124;2023-11-19T06:24:27;2.30;;;2.00;;
10717;SDS011;13513;42.700;23.124;2023-11-19T06:26:54;4.20;;;2.10;;
10717;SDS011;13513;42.700;23.124;2023-11-19T06:29:22;2.30;;;2.10;;
10717;SDS011;13513;42.700;23.124;2023-11-19T06:31:49;2.63;;;2.37;;
10717;SDS011;13513;42.700;23.124;2023-11-19T06:34:17;2.37;;;1.90;;
10717;SDS011;13513;42.700;23.124;2023-11-19T06:36:45;2.30;;;1.97;;
10717;SDS011;13513;42.700;23.124;2023-11-19T06:39:14;2.40;;;2.20;;
10717;SDS011;13513;42.700;23.124;2023-11-19T06:41:45;2.33;;;2.13;;
10717;SDS011;13513;42.700;23.124;2023-11-19T06:44:12;2.23;;;2.00;;
10717;SDS011;13513;42.700;23.124;2023-11-19T06:46:43;2.50;;;2.30;;
10717;SDS011;13513;42.700;23.124;2023-11-19T06:49:11;2.10;;;1.97;;
10717;SDS011;13513;42.700;23.124;2023-11-19T06:51:42;2.37;;;2.17;;
10717;SDS011;13513;42.700;23.124;2023-11-19T06:54:09;2.60;;;2.23;;
10717;SDS011;13513;42.700;23.124;2023-11-19T06:56:37;2.73;;;2.10;;
10717;SDS011;13513;42.700;23.124;2023-11-19T06:59:04;2.37;;;2.17;;
10717;SDS011;13513;42.700;23.124;2023-11-19T07:01:37;3.43;;;2.40;;
10717;SDS011;13513;42.700;23.124;2023-11-19T07:04:11;7.40;;;2.57;;
10717;SDS011;13513;42.700;23.124;2023-11-19T07:06:39;2.50;;;2.00;;
10717;SDS011;13513;42.700;23.124;2023-11-19T07:09:09;2.20;;;2.00;;
10717;SDS011;13513;42.700;23.124;2023-11-19T07:11:41;2.10;;;1.90;;
10717;SDS011;13513;42.700;23.124;2023-11-19T07:14:12;2.40;;;2.03;;
10717;SDS011;13513;42.700;23.124;2023-11-19T07:16:39;2.50;;;2.03;;
10717;SDS011;13513;42.700;23.124;2023-11-19T07:19:21;4.63;;;2.30;;
10717;SDS011;13513;42.700;23.124;2023-11-19T07:21:37;2.70;;;2.30;;
10717;SDS011;13513;42.700;23.124;2023-11-19T07:24:10;2.50;;;2.10;;
10717;SDS011;13513;42.700;23.124;2023-11-19T07:26:45;2.70;;;2.30;;
10717;SDS011;13513;42.700;23.124;2023-11-19T07:29:16;2.30;;;2.10;;
10717;SDS011;13513;42.700;23.124;2023-11-19T07:31:52;2.30;;;2.10;;
10717;SDS011;13513;42.700;23.124;2023-11-19T07:34:16;2.50;;;2.30;;
10717;SDS011;13513;42.700;23.124;2023-11-19T07:36:45;4.20;;;2.40;;
10717;SDS011;13513;42.700;23.124;2023-11-19T07:39:13;3.43;;;2.33;;
10717;SDS011;13513;42.700;23.124;2023-11-19T07:41:40;2.20;;;2.00;;
10717;SDS011;13513;42.700;23.124;2023-11-19T07:44:12;1.97;;;1.87;;
10717;SDS011;13513;42.700;23.124;2023-11-19T07:46:40;2.80;;;2.50;;
10717;SDS011;13513;42.700;23.124;2023-11-19T07:49:10;3.07;;;2.30;;
10717;SDS011;13513;42.700;23.124;2023-11-19T07:51:38;2.50;;;2.30;;
10717;SDS011;13513;42.700;23.124;2023-11-19T07:54:07;2.90;;;2.13;;
10717;SDS011;13513;42.700;23.124;2023-11-19T07:56:34;2.57;;;2.27;;
10717;SDS011;13513;42.700;23.124;2023-11-19T07:59:02;2.73;;;2.50;;
10717;SDS011;13513;42.700;23.124;2023-11-19T08:01:30;2.47;;;2.27;;
10717;SDS011;13513;42.700;23.124;2023-11-19T08:03:57;2.50;;;2.30;;
10717;SDS011;13513;42.700;23.124;2023-11-19T08:06:25;3.20;;;2.50;;
10717;SDS011;13513;42.700;23.124;2023-11-19T08:08:52;2.63;;;2.43;;
10717;SDS011;13513;42.700;23.124;2023-11-19T08:11:20;2.60;;;2.40;;
10717;SDS011;13513;42.700;23.124;2023-11-19T08:13:47;2.50;;;2.30;;
10717;SDS011;13513;42.700;23.124;2023-11-19T08:16:15;6.63;;;2.10;;
10717;SDS011;13513;42.700;23.124;2023-11-19T08:18:45;2.63;;;2.43;;
10717;SDS011;13513;42.700;23.124;2023-11-19T08:21:14;2.70;;;2.27;;
10717;SDS011;13513;42.700;23.124;2023-11-19T08:23:42;2.00;;;1.80;;
10717;SDS011;13513;42.700;23.124;2023-11-19T08:26:11;3.60;;;2.30;;
10717;SDS011;13513;42.700;23.124;2023-11-19T08:28:43;2.73;;;2.40;;
10717;SDS011;13513;42.700;23.124;2023-11-19T08:31:07;2.40;;;2.20;;
10717;SDS011;13513;42.700;23.124;2023-11-19T08:33:35;2.50;;;2.30;;
10717;SDS011;13513;42.700;23.124;2023-11-19T08:36:03;2.73;;;2.03;;
10717;SDS011;13513;42.700;23.124;2023-11-19T08:38:32;2.57;;;2.30;;
10717;SDS011;13513;42.700;23.124;2023-11-19T08:40:59;3.37;;;2.60;;
10717;SDS011;13513;42.700;23.124;2023-11-19T08:43:29;2.40;;;2.20;;
10717;SDS011;13513;42.700;23.124;2023-11-19T08:45:57;2.60;;;2.30;;
10717;SDS011;13513;42.700;23.124;2023-11-19T08:48:24;2.53;;;2.13;;
10717;SDS011;13513;42.700;23.124;2023-11-19T08:50:57;4.93;;;2.40;;
10717;SDS011;13513;42.700;23.124;2023-11-19T08:53:22;3.57;;;2.37;;
10717;SDS011;13513;42.700;23.124;2023-11-19T08:55:50;3.07;;;2.50;;
10717;SDS011;13513;42.700;23.124;2023-11-19T08:58:18;2.93;;;2.47;;
10717;SDS011;13513;42.700;23.124;2023-11-19T09:00:45;2.30;;;2.10;;
10717;SDS011;13513;42.700;23.124;2023-11-19T09:03:13;2.20;;;2.00;;
10717;SDS011;13513;42.700;23.124;2023-11-19T09:05:40;2.40;;;2.20;;
10717;SDS011;13513;42.700;23.124;2023-11-19T09:08:08;2.67;;;2.40;;
10717;SDS011;13513;42.700;23.124;2023-11-19T09:10:39;2.73;;;2.50;;
10717;SDS011;13513;42.700;23.124;2023-11-19T09:13:08;2.47;;;2.27;;
10717;SDS011;13513;42.700;23.124;2023-11-19T09:15:36;3.73;;;2.17;;
10717;SDS011;13513;42.700;23.124;2023-11-19T09:18:03;3.77;;;2.60;;
10717;SDS011;13513;42.700;23.124;2023-11-19T09:20:31;3.07;;;2.40;;
10717;SDS011;13513;42.700;23.124;2023-11-19T09:23:00;2.90;;;2.67;;
10717;SDS011;13513;42.700;23.124;2023-11-19T09:25:27;2.67;;;2.40;;
10717;SDS011;13513;42.700;23.124;2023-11-19T09:27:55;4.73;;;2.50;;
10717;SDS011;13513;42.700;23.124;2023-11-19T09:30:22;2.40;;;2.20;;
10717;SDS011;13513;42.700;23.124;2023-11-19T09:32:50;3.70;;;2.23;;
10717;SDS011;13513;42.700;23.124;2023-11-19T09:35:17;2.50;;;2.30;;
10717;SDS011;13513;42.700;23.124;2023-11-19T09:37:45;3.10;;;2.37;;
10717;SDS011;13513;42.700;23.124;2023-11-19T09:40:17;2.43;;;2.20;;
10717;SDS011;13513;42.700;23.124;2023-11-19T09:42:46;2.50;;;2.30;;
10717;SDS011;13513;42.700;23.124;2023-11-19T09:45:17;2.40;;;2.17;;
10717;SDS011;13513;42.700;23.124;2023-11-19T09:47:47;2.33;;;2.07;;
10717;SDS011;13513;42.700;23.124;2023-11-19T09:50:18;2.50;;;2.30;;
10717;SDS011;13513;42.700;23.124;2023-11-19T09:52:46;2.50;;;2.30;;
10717;SDS011;13513;42.700;23.124;2023-11-19T09:55:17;2.83;;;2.30;;
10717;SDS011;13513;42.700;23.124;2023-11-19T09:57:45;2.93;;;2.33;;
10717;SDS011;13513;42.700;23.124;2023-11-19T10:00:15;2.60;;;2.40;;
10717;SDS011;13513;42.700;23.124;2023-11-19T10:02:47;2.50;;;2.30;;
10717;SDS011;13513;42.700;23.124;2023-11-19T10:05:16;2.83;;;2.17;;
10717;SDS011;13513;42.700;23.124;2023-11-19T10:07:45;2.60;;;2.07;;
10717;SDS011;13513;42.700;23.124;2023-11-19T10:10:13;2.70;;;2.00;;
10717;SDS011;13513;42.700;23.124;2023-11-19T10:12:42;2.60;;;2.10;;
10717;SDS011;13513;42.700;23.124;2023-11-19T10:15:12;2.10;;;1.90;;
10717;SDS011;13513;42.700;23.124;2023-11-19T10:17:43;2.47;;;1.97;;
10717;SDS011;13513;42.700;23.124;2023-11-19T10:20:10;3.93;;;2.17;;
10717;SDS011;13513;42.700;23.124;2023-11-19T10:22:38;2.13;;;1.70;;
10717;SDS011;13513;42.700;23.124;2023-11-19T10:25:10;1.90;;;1.70;;
10717;SDS011;13513;42.700;23.124;2023-11-19T10:27:51;2.10;;;1.80;;
10717;SDS011;13513;42.700;23.124;2023-11-19T10:30:23;2.10;;;1.90;;
10717;SDS011;13513;42.700;23.124;2023-11-19T10:33:07;1.70;;;1.60;;
10717;SDS011;13513;42.700;23.124;2023-11-19T10:35:53;2.30;;;2.10;;
10717;SDS011;13513;42.700;23.124;2023-11-19T10:38:23;1.97;;;1.80;;
10717;SDS011;13513;42.700;23.124;2023-11-19T10:40:52;2.53;;;1.93;;
10717;SDS011;13513;42.700;23.124;2023-11-19T10:43:22;2.20;;;1.70;;
10717;SDS011;13513;42.700;23.124;2023-11-19T10:45:50;2.13;;;1.93;;
10717;SDS011;13513;42.700;23.124;2023-11-19T10:48:18;1.77;;;1.67;;
10717;SDS011;13513;42.700;23.124;2023-11-19T10:50:49;2.43;;;2.03;;
10717;SDS011;13513;42.700;23.124;2023-11-19T10:53:17;1.83;;;1.70;;
10717;SDS011;13513;42.700;23.124;2023-11-19T10:55:47;1.70;;;1.60;;
10717;SDS011;13513;42.700;23.124;2023-11-19T10:58:16;2.10;;;1.90;;
10717;SDS011;13513;42.700;23.124;2023-11-19T11:00:48;2.40;;;2.00;;
10717;SDS011;13513;42.700;23.124;2023-11-19T11:03:24;2.07;;;1.77;;
10717;SDS011;13513;42.700;23.124;2023-11-19T11:05:54;4.13;;;1.80;;
10717;SDS011;13513;42.700;23.124;2023-11-19T11:08:22;5.13;;;1.90;;
10717;SDS011;13513;42.700;23.124;2023-11-19T11:13:21;1.70;;;1.60;;
10717;SDS011;13513;42.700;23.124;2023-11-19T11:15:50;2.07;;;1.80;;
10717;SDS011;13513;42.700;23.124;2023-11-19T11:18:19;2.03;;;1.90;;
10717;SDS011;13513;42.700;23.124;2023-11-19T11:20:47;1.97;;;1.63;;
10717;SDS011;13513;42.700;23.124;2023-11-19T11:29:01;1.60;;;1.50;;
10717;SDS011;13513;42.700;23.124;2023-11-19T11:31:40;1.50;;;1.40;;
10717;SDS011;13513;42.700;23.124;2023-11-19T11:39:39;1.97;;;1.70;;
10717;SDS011;13513;42.700;23.124;2023-11-19T11:44:59;1.60;;;1.50;;
10717;SDS011;13513;42.700;23.124;2023-11-19T11:50:13;1.67;;;1.40;;
10717;SDS011;13513;42.700;23.124;2023-11-19T11:55:39;1.30;;;1.20;;
10717;SDS011;13513;42.700;23.124;2023-11-19T11:58:27;1.55;;;1.30;;
10717;SDS011;13513;42.700;23.124;2023-11-19T12:00:59;1.50;;;1.32;;
10717;SDS011;13513;42.700;23.124;2023-11-19T12:03:31;1.50;;;1.40;;
10717;SDS011;13513;42.700;23.124;2023-11-19T12:05:59;1.70;;;1.60;;
10717;SDS011;13513;42.700;23.124;2023-11-19T12:08:28;1.53;;;1.30;;
10717;SDS011;13513;42.700;23.124;2023-11-19T12:10:56;1.90;;;1.60;;
10717;SDS011;13513;42.700;23.124;2023-11-19T12:13:29;1.40;;;1.30;;
10717;SDS011;13513;42.700;23.124;2023-11-19T12:18:29;1.83;;;1.33;;
10717;SDS011;13513;42.700;23.124;2023-11-19T12:20:58;4.67;;;1.50;;
10717;SDS011;13513;42.700;23.124;2023-11-19T12:23:27;2.03;;;1.83;;
10717;SDS011;13513;42.700;23.124;2023-11-19T12:25:56;2.13;;;1.70;;
10717;SDS011;13513;42.700;23.124;2023-11-19T12:28:25;1.87;;;1.77;;
10717;SDS011;13513;42.700;23.124;2023-11-19T12:30:53;1.97;;;1.87;;
10717;SDS011;13513;42.700;23.124;2023-11-19T12:33:22;1.80;;;1.70;;
10717;SDS011;13513;42.700;23.124;2023-11-19T12:35:50;1.60;;;1.50;;
10717;SDS011;13513;42.700;23.124;2023-11-19T12:38:18;2.30;;;1.83;;
10717;SDS011;13513;42.700;23.124;2023-11-19T12:41:05;2.10;;;1.90;;
10717;SDS011;13513;42.700;23.124;2023-11-19T12:43:33;2.00;;;1.80;;
10717;SDS011;13513;42.700;23.124;2023-11-19T12:46:02;1.67;;;1.57;;
10717;SDS011;13513;42.700;23.124;2023-11-19T12:48:30;2.00;;;1.70;;
10717;SDS011;13513;42.700;23.124;2023-11-19T12:50:58;1.90;;;1.70;;
10717;SDS011;13513;42.700;23.124;2023-11-19T12:53:27;1.60;;;1.50;;
10717;SDS011;13513;42.700;23.124;2023-11-19T12:55:55;1.60;;;1.50;;
10717;SDS011;13513;42.700;23.124;2023-11-19T12:58:29;1.60;;;1.50;;
10717;SDS011;13513;42.700;23.124;2023-11-19T13:01:02;2.07;;;1.60;;
10717;SDS011;13513;42.700;23.124;2023-11-19T13:03:31;1.43;;;1.33;;
10717;SDS011;13513;42.700;23.124;2023-11-19T13:06:03;1.43;;;1.33;;
10717;SDS011;13513;42.700;23.124;2023-11-19T13:08:40;1.63;;;1.40;;
10717;SDS011;13513;42.700;23.124;2023-11-19T13:11:10;1.57;;;1.27;;
10717;SDS011;13513;42.700;23.124;2023-11-19T13:13:54;1.43;;;1.33;;
10717;SDS011;13513;42.700;23.124;2023-11-19T13:16:26;1.80;;;1.60;;
10717;SDS011;13513;42.700;23.124;2023-11-19T13:18:54;1.47;;;1.33;;
10717;SDS011;13513;42.700;23.124;2023-11-19T13:21:23;1.40;;;1.30;;
10717;SDS011;13513;42.700;23.124;2023-11-19T13:23:50;2.77;;;1.30;;
10717;SDS011;13513;42.700;23.124;2023-11-19T13:26:18;1.60;;;1.50;;
10717;SDS011;13513;42.700;23.124;2023-11-19T13:28:45;1.63;;;1.53;;
10717;SDS011;13513;42.700;23.124;2023-11-19T13:31:13;1.60;;;1.50;;
10717;SDS011;13513;42.700;23.124;2023-11-19T13:33:40;1.70;;;1.60;;
10717;SDS011;13513;42.700;23.124;2023-11-19T13:36:08;1.60;;;1.50;;
10717;SDS011;13513;42.700;23.124;2023-11-19T13:38:36;1.60;;;1.50;;
10717;SDS011;13513;42.700;23.124;2023-11-19T13:41:05;1.50;;;1.40;;
10717;SDS011;13513;42.700;23.124;2023-11-19T13:43:35;1.60;;;1.50;;
10717;SDS011;13513;42.700;23.124;2023-11-19T13:46:03;4.57;;;1.50;;
10717;SDS011;13513;42.700;23.124;2023-11-19T13:48:30;1.60;;;1.50;;
10717;SDS011;13513;42.700;23.124;2023-11-19T13:50:58;2.83;;;1.67;;
10717;SDS011;13513;42.700;23.124;2023-11-19T13:53:26;1.30;;;1.20;;
10717;SDS011;13513;42.700;23.124;2023-11-19T13:55:53;1.50;;;1.40;;
10717;SDS011;13513;42.700;23.124;2023-11-19T13:58:21;1.40;;;1.30;;
10717;SDS011;13513;42.700;23.124;2023-11-19T14:00:49;1.80;;;1.70;;
10717;SDS011;13513;42.700;23.124;2023-11-19T14:03:16;1.57;;;1.40;;
10717;SDS011;13513;42.700;23.124;2023-11-19T14:05:44;1.63;;;1.53;;
10717;SDS011;13513;42.700;23.124;2023-11-19T14:08:12;3.47;;;1.53;;
10717;SDS011;13513;42.700;23.124;2023-11-19T14:10:39;2.30;;;1.47;;
10717;SDS011;13513;42.700;23.124;2023-11-19T14:13:07;1.57;;;1.30;;
10717;SDS011;13513;42.700;23.124;2023-11-19T14:15:34;1.67;;;1.57;;
10717;SDS011;13513;42.700;23.124;2023-11-19T14:18:03;2.00;;;1.80;;
10717;SDS011;13513;42.700;23.124;2023-11-19T14:20:30;1.70;;;1.60;;
10717;SDS011;13513;42.700;23.124;2023-11-19T14:22:58;1.60;;;1.50;;
10717;SDS011;13513;42.700;23.124;2023-11-19T14:25:26;1.87;;;1.70;;
10717;SDS011;13513;42.700;23.124;2023-11-19T14:27:53;2.27;;;1.73;;
10717;SDS011;13513;42.700;23.124;2023-11-19T14:30:21;2.80;;;2.00;;
10717;SDS011;13513;42.700;23.124;2023-11-19T14:32:48;1.70;;;1.60;;
10717;SDS011;13513;42.700;23.124;2023-11-19T14:35:16;1.80;;;1.70;;
10717;SDS011;13513;42.700;23.124;2023-11-19T14:37:43;1.73;;;1.50;;
10717;SDS011;13513;42.700;23.124;2023-11-19T14:40:11;2.10;;;1.70;;
10717;SDS011;13513;42.700;23.124;2023-11-19T14:42:39;1.67;;;1.50;;
10717;SDS011;13513;42.700;23.124;2023-11-19T14:45:07;1.70;;;1.40;;
10717;SDS011;13513;42.700;23.124;2023-11-19T14:47:36;1.67;;;1.57;;
10717;SDS011;13513;42.700;23.124;2023-11-19T14:50:04;1.60;;;1.50;;
10717;SDS011;13513;42.700;23.124;2023-11-19T14:52:52;3.23;;;1.90;;
10717;SDS011;13513;42.700;23.124;2023-11-19T14:55:19;2.13;;;1.80;;
10717;SDS011;13513;42.700;23.124;2023-11-19T14:57:47;2.27;;;1.77;;
10717;SDS011;13513;42.700;23.124;2023-11-19T15:00:16;1.90;;;1.80;;
10717;SDS011;13513;42.700;23.124;2023-11-19T15:02:43;1.50;;;1.40;;
10717;SDS011;13513;42.700;23.124;2023-11-19T15:05:11;4.60;;;2.07;;
10717;SDS011;13513;42.700;23.124;2023-11-19T15:07:38;4.57;;;3.43;;